Change the Weather History Date:

Wednesday, March 5, 2014

  Actual Average Record
Temperature  
Mean Temperature 32 °F -  
Max Temperature 41 °F 39 °F 68 °F (2004)
Min Temperature 24 °F 23 °F 5 °F (2002)
Degree Days  
Heating Degree Days 32    
Moisture  
Dew Point 17 °F    
Average Humidity 55    
Maximum Humidity 74    
Minimum Humidity 20    
Precipitation  
Precipitation 0.05 in - - ()
Sea Level Pressure  
Sea Level Pressure 30.13 in    
Wind  
Wind Speed 9 mph (WNW)    
Max Wind Speed 15 mph    
Max Gust Speed -    
Visibility 10 miles    
Events      
Averages and records for this station are not official NWS values.
T = Trace of Precipitation, MM = Missing Value Source: NWS Daily Summary

Daily Weather History Graph

Daily Weather History Graph

Search for Another Location

Airport or City:

Trip Planner

Search our weather history database for the weather conditions in past years. The results will help you decide how hot, cold, wet, or windy it might be!

Date:

Astronomy

Mar. 05, 2014 Rise Set
Actual Time 6:45 AM EST 6:16 PM EST
Civil Twilight 6:19 AM EST 6:43 PM EST
Nautical Twilight 5:48 AM EST 7:13 PM EST
Astronomical Twilight 5:18 AM EST 7:44 PM EST
Moon 9:14 AM EST (3/5) 11:18 PM EST (3/5)
Length of Visible Light 12h 24m
Length of Day
11h 31m
Waxing Crescent, 23% of the Moon is Illuminated
Mar 5
Waxing Crescent
Mar 8
First Quarter
Mar 16
Full
Mar 23
Last Quarter
Mar 30
New

Hourly Weather History & Observations

Time (EST) Temp. Windchill Dew Point Humidity Pressure Visibility Wind Dir Wind Speed Gust Speed Precip Events Conditions
12:15 AM 26.6 °F 14.7 °F 12.2 °F 55% 30.08 in 10.0 mi West 15.0 mph - N/A   Clear
12:35 AM 26.6 °F 15.2 °F 12.2 °F 55% 30.07 in 10.0 mi West 13.8 mph - N/A   Clear
12:55 AM 26.6 °F 15.2 °F 14.0 °F 59% 30.07 in 10.0 mi West 13.8 mph - N/A   Clear
1:15 AM 26.6 °F 16.2 °F 12.2 °F 55% 30.07 in 10.0 mi West 11.5 mph - N/A   Clear
1:35 AM 26.6 °F 16.8 °F 10.4 °F 51% 30.07 in 10.0 mi WNW 10.4 mph - N/A   Clear
1:55 AM 26.6 °F 17.5 °F 10.4 °F 51% 30.07 in 10.0 mi West 9.2 mph - N/A   Unknown
2:15 AM 26.6 °F 16.8 °F 10.4 °F 51% 30.07 in 10.0 mi WNW 10.4 mph - N/A   Clear
2:35 AM 26.6 °F 16.8 °F 12.2 °F 55% 30.07 in 10.0 mi WNW 10.4 mph - N/A   Clear
2:55 AM 26.6 °F 16.8 °F 12.2 °F 55% 30.06 in 10.0 mi WNW 10.4 mph - N/A   Clear
3:15 AM 26.6 °F 16.8 °F 12.2 °F 55% 30.06 in 10.0 mi WNW 10.4 mph - N/A   Clear
3:35 AM 26.6 °F 16.8 °F 14.0 °F 59% 30.07 in 10.0 mi WNW 10.4 mph - N/A   Clear
3:55 AM 26.6 °F 17.5 °F 15.8 °F 64% 30.07 in 10.0 mi WNW 9.2 mph - N/A   Clear
4:15 AM 24.8 °F 15.3 °F 12.2 °F 59% 30.08 in 10.0 mi West 9.2 mph - N/A   Clear
4:35 AM 24.8 °F 15.3 °F 14.0 °F 64% 30.07 in 10.0 mi West 9.2 mph - N/A   Clear
4:55 AM 26.6 °F 17.5 °F 17.6 °F 69% 30.07 in 10.0 mi WNW 9.2 mph - N/A   Clear
5:15 AM 26.6 °F 18.2 °F 17.6 °F 69% 30.07 in 10.0 mi West 8.1 mph - N/A   Clear
5:35 AM 24.8 °F 16.1 °F 17.6 °F 74% 30.08 in 10.0 mi West 8.1 mph - N/A   Clear
5:55 AM 26.6 °F 18.2 °F 17.6 °F 69% 30.09 in 10.0 mi West 8.1 mph - N/A   Clear
6:15 AM 24.8 °F 16.9 °F 17.6 °F 74% 30.09 in 10.0 mi West 6.9 mph - N/A   Clear
6:35 AM 24.8 °F 17.9 °F 17.6 °F 74% 30.10 in 10.0 mi WNW 5.8 mph - N/A   Clear
6:50 AM 24.8 °F 19.1 °F 17.6 °F 74% 30.10 in 10.0 mi West 4.6 mph - N/A   Clear
7:15 AM 26.6 °F 21.2 °F 17.6 °F 69% 30.10 in 10.0 mi West 4.6 mph - N/A   Clear
7:35 AM 28.4 °F 24.6 °F 15.8 °F 59% 30.10 in 10.0 mi West 3.5 mph - N/A   Clear
7:55 AM 28.4 °F 23.3 °F 17.6 °F 64% 30.11 in 10.0 mi West 4.6 mph - N/A   Clear
8:15 AM 28.4 °F 24.6 °F 17.6 °F 64% 30.11 in 10.0 mi West 3.5 mph - N/A   Clear
8:24 AM 28.4 °F 24.6 °F 17.6 °F 64% 30.12 in 10.0 mi West 3.5 mph - N/A   Clear
8:30 AM 28.4 °F 23.3 °F 17.6 °F 64% 30.12 in 10.0 mi WNW 4.6 mph - N/A   Clear
8:55 AM 30.2 °F - 17.6 °F 60% 30.12 in 10.0 mi Calm Calm - N/A   Clear
9:15 AM 32.0 °F 26.4 °F 15.8 °F 51% 30.13 in 10.0 mi WNW 5.8 mph - N/A   Clear
9:35 AM 33.8 °F 29.6 °F 15.8 °F 48% 30.13 in 10.0 mi WNW 4.6 mph - N/A   Clear
9:50 AM 33.8 °F 30.8 °F 15.8 °F 48% 30.13 in 10.0 mi WNW 3.5 mph - N/A   Clear
10:15 AM 33.8 °F 29.6 °F 15.8 °F 48% 30.13 in 10.0 mi WSW 4.6 mph - N/A   Clear
10:35 AM 37.4 °F 33.8 °F -0.4 °F 20% 30.13 in 10.0 mi West 4.6 mph - N/A   Clear
10:55 AM 35.6 °F 31.7 °F 19.4 °F 52% 30.13 in 10.0 mi West 4.6 mph - 0.01 in   Clear
11:15 AM 35.6 °F 31.7 °F 19.4 °F 52% 30.14 in 10.0 mi West 4.6 mph - 0.02 in   Clear
11:35 AM 35.6 °F 30.7 °F 17.6 °F 48% 30.14 in 10.0 mi West 5.8 mph - 0.03 in   Clear
11:55 AM 35.6 °F 31.7 °F 19.4 °F 52% 30.13 in 10.0 mi West 4.6 mph - 0.01 in   Clear
12:10 PM 37.4 °F 33.8 °F 15.8 °F 41% 30.13 in 10.0 mi West 4.6 mph - 0.01 in   Clear
12:35 PM 37.4 °F 32.8 °F 19.4 °F 48% 30.13 in 10.0 mi West 5.8 mph - 0.01 in   Clear
12:55 PM 37.4 °F 31.4 °F 17.6 °F 45% 30.12 in 10.0 mi West 8.1 mph - N/A   Clear
1:15 PM 37.4 °F 32.8 °F 10.4 °F 33% 30.11 in 10.0 mi West 5.8 mph - N/A   Clear
1:35 PM 37.4 °F 31.4 °F 8.6 °F 30% 30.10 in 10.0 mi West 8.1 mph - N/A   Clear
1:55 PM 39.2 °F 35.9 °F 12.2 °F 33% 30.10 in 10.0 mi West 4.6 mph - N/A   Clear
2:15 PM 39.2 °F 35.0 °F 15.8 °F 39% 30.10 in 7.0 mi WNW 5.8 mph - N/A   Clear
2:35 PM 39.2 °F 35.0 °F 17.6 °F 42% 30.10 in 10.0 mi NW 5.8 mph - N/A   Clear
2:55 PM 39.2 °F 35.0 °F 17.6 °F 42% 30.10 in 7.0 mi WNW 5.8 mph - N/A   Clear
3:20 PM 41.0 °F 36.4 °F 19.4 °F 42% 30.10 in 10.0 mi WNW 6.9 mph - N/A   Clear
3:35 PM 41.0 °F 35.2 °F 21.2 °F 45% 30.10 in 10.0 mi West 9.2 mph - N/A   Clear
3:55 PM 41.0 °F 35.8 °F 21.2 °F 45% 30.10 in 10.0 mi West 8.1 mph - N/A   Clear
4:15 PM 41.0 °F 35.2 °F 21.2 °F 45% 30.11 in 10.0 mi West 9.2 mph - N/A   Clear
4:35 PM 41.0 °F 35.8 °F 21.2 °F 45% 30.11 in 10.0 mi WNW 8.1 mph - N/A   Clear
4:55 PM 41.0 °F 37.1 °F 21.2 °F 45% 30.12 in 10.0 mi WNW 5.8 mph - N/A   Clear
5:15 PM 41.0 °F 36.4 °F 21.2 °F 45% 30.13 in 10.0 mi WNW 6.9 mph - N/A   Clear
5:35 PM 39.2 °F 35.0 °F 21.2 °F 49% 30.14 in 10.0 mi West 5.8 mph - N/A   Clear
5:55 PM 39.2 °F 34.2 °F 21.2 °F 49% 30.15 in 10.0 mi West 6.9 mph - N/A   Clear
6:10 PM 37.4 °F 32.1 °F 19.4 °F 48% 30.15 in 10.0 mi West 6.9 mph - N/A   Clear
6:36 PM 37.4 °F 32.8 °F 19.4 °F 48% 30.16 in 10.0 mi West 5.8 mph - N/A   Clear
6:56 PM 37.4 °F 32.8 °F 19.4 °F 48% 30.17 in 10.0 mi West 5.8 mph - N/A   Clear
7:16 PM 37.4 °F 32.8 °F 21.2 °F 52% 30.16 in 10.0 mi WNW 5.8 mph - N/A   Clear
7:36 PM 35.6 °F 30.7 °F 21.2 °F 56% 30.16 in 10.0 mi NNE 5.8 mph - N/A   Clear
7:55 PM 33.8 °F 29.6 °F 19.4 °F 56% 30.17 in 10.0 mi ENE 4.6 mph - N/A   Clear
7:56 PM 33.8 °F 28.6 °F 19.4 °F 56% 30.17 in 10.0 mi ENE 5.8 mph - N/A   Clear
8:10 PM 33.8 °F 28.6 °F 19.4 °F 56% 30.18 in 10.0 mi East 5.8 mph - N/A   Clear
8:56 PM 30.2 °F 23.4 °F 17.6 °F 60% 30.20 in 10.0 mi East 6.9 mph - N/A   Clear
9:16 PM 30.2 °F 23.4 °F 15.8 °F 55% 30.21 in 10.0 mi East 6.9 mph - N/A   Clear
9:36 PM 30.2 °F 21.3 °F 15.8 °F 55% 30.22 in 10.0 mi East 10.4 mph - N/A   Clear
9:50 PM 28.4 °F 19.7 °F 15.8 °F 59% 30.22 in 10.0 mi East 9.2 mph - N/A   Clear
10:15 PM 26.6 °F 17.5 °F 17.6 °F 69% 30.22 in 10.0 mi East 9.2 mph - N/A   Clear
10:16 PM 26.6 °F 16.8 °F 17.6 °F 69% 30.22 in 10.0 mi East 10.4 mph - N/A   Clear
10:56 PM 26.6 °F 16.8 °F 17.6 °F 69% 30.23 in 10.0 mi East 10.4 mph - N/A   Clear
11:00 PM 26.6 °F 16.8 °F 17.6 °F 69% 30.22 in 10.0 mi East 10.4 mph - N/A   Clear
11:10 PM 24.8 °F 14.0 °F 17.6 °F 74% 30.22 in 10.0 mi East 11.5 mph - N/A   Clear
11:36 PM 24.8 °F 16.1 °F 15.8 °F 69% 30.23 in 10.0 mi East 8.1 mph - N/A   Clear
11:56 PM 24.8 °F 14.6 °F 15.8 °F 69% 30.22 in 10.0 mi East 10.4 mph - N/A   Clear